Terminal Aerodrome Forecast
Issued by NWS Tuscon, AZ

Home | Current Version | Previous Version | Text Only | Print | Product List | Glossary On
Versions: 1 2 3 4 5 6 7 8 9 10 11
000
FTUS45 KTWC 140520
TAFDUG
TAF
KDUG 140520Z 1406/1506 13006KT P6SM SKC
     FM141000 VRB04KT P6SM SKC
     FM141700 22007KT P6SM FEW100
     FM142100 30008KT P6SM SCT100
     FM150200 01010KT P6SM FEW100=

USA.gov is the U.S. government's official web portal to all federal, state and local government web resources and services.